Time;durP1;ratioP1;P1;durP2;ratioP2;P2;SDS_P1;SDS_P2;PMS_P1;PMS_P2;Temp;Humidity;BMP_temperature;BMP_pressure;BME280_temperature;BME280_humidity;BME280_pressure;Samples;Min_cycle;Max_cycle;Signal;HPM_P1;HPM_P2
2022/09/01 00:01:13;;;;;;;14.30;9.68;;;19.70;91.70;;;;;;5041191;28;20422;-69
2022/09/01 00:03:39;;;;;;;16.75;10.07;;;19.70;91.70;;;;;;5048267;28;20037;-69
2022/09/01 00:06:09;;;;;;;17.40;10.68;;;19.70;91.70;;;;;;5040765;28;20027;-68
2022/09/01 00:08:35;;;;;;;24.75;12.23;;;19.70;91.70;;;;;;5049670;28;20222;-68
2022/09/01 00:11:00;;;;;;;17.80;11.30;;;19.70;91.70;;;;;;5049511;28;20025;-68
2022/09/01 00:13:26;;;;;;;20.15;11.85;;;19.70;91.70;;;;;;5049621;28;20365;-69
2022/09/01 00:15:52;;;;;;;18.75;11.98;;;19.70;91.70;;;;;;5050376;28;20467;-68
2022/09/01 00:18:17;;;;;;;18.92;12.40;;;19.70;91.70;;;;;;5033953;28;20077;-69
2022/09/01 00:20:43;;;;;;;21.10;12.13;;;19.70;91.70;;;;;;5032368;28;20028;-68
2022/09/01 00:23:14;;;;;;;21.35;11.77;;;19.70;91.70;;;;;;5032595;28;20036;-68
2022/09/01 00:25:39;;;;;;;19.25;12.35;;;19.70;91.70;;;;;;5031109;28;20033;-68
2022/09/01 00:28:05;;;;;;;20.50;12.15;;;19.70;91.70;;;;;;5041975;28;20021;-68
2022/09/01 00:30:31;;;;;;;18.27;11.10;;;19.70;91.70;;;;;;5053277;28;20128;-68
2022/09/01 00:32:57;;;;;;;18.92;11.65;;;19.60;91.70;;;;;;5053481;28;20013;-68
2022/09/01 00:35:22;;;;;;;19.13;11.02;;;19.60;91.90;;;;;;5043025;28;20025;-68
2022/09/01 00:37:48;;;;;;;17.67;10.93;;;19.60;91.70;;;;;;5035524;28;20067;-68
2022/09/01 00:40:15;;;;;;;16.55;11.40;;;19.60;91.70;;;;;;5053691;28;20024;-68
2022/09/01 00:42:43;;;;;;;14.75;10.10;;;19.70;91.70;;;;;;5053305;28;20272;-68
2022/09/01 00:45:10;;;;;;;18.05;10.48;;;19.60;91.70;;;;;;5052460;28;20102;-68
2022/09/01 00:47:36;;;;;;;16.27;10.13;;;19.70;91.70;;;;;;5034768;28;20029;-68
2022/09/01 00:50:05;;;;;;;15.90;10.77;;;19.60;91.80;;;;;;5043838;28;20067;-68
2022/09/01 00:52:35;;;;;;;16.50;10.07;;;19.70;91.70;;;;;;5052985;28;20478;-68
2022/09/01 00:55:14;;;;;;;13.38;9.60;;;19.60;91.70;;;;;;5034530;28;20029;-69
2022/09/01 00:57:41;;;;;;;14.98;10.45;;;19.70;91.70;;;;;;5053034;28;20052;-68
2022/09/01 01:00:15;;;;;;;15.85;10.38;;;19.60;91.80;;;;;;5052232;28;20025;-68
2022/09/01 01:02:41;;;;;;;14.90;9.88;;;19.60;91.80;;;;;;5052747;28;20017;-68
2022/09/01 01:05:08;;;;;;;15.90;9.90;;;19.70;91.80;;;;;;5042913;28;20620;-68
2022/09/01 01:07:37;;;;;;;15.30;10.30;;;19.60;91.70;;;;;;5051632;28;20025;-68
2022/09/01 01:10:08;;;;;;;15.52;10.65;;;19.60;91.80;;;;;;5052654;28;20048;-68
2022/09/01 01:12:39;;;;;;;16.88;10.57;;;19.60;91.80;;;;;;5052404;28;20025;-69
2022/09/01 01:15:07;;;;;;;13.75;9.48;;;19.60;91.80;;;;;;5034396;28;20175;-68
2022/09/01 01:17:33;;;;;;;14.23;9.25;;;19.60;91.80;;;;;;5034570;28;20551;-69
2022/09/01 01:23:18;;;;;;;16.45;10.23;;;19.60;91.80;;;;;;5052509;28;20449;-68
2022/09/01 01:25:48;;;;;;;14.38;10.07;;;19.60;91.80;;;;;;5047437;28;20386;-68
2022/09/01 01:28:29;;;;;;;18.38;10.50;;;19.60;91.80;;;;;;5034616;28;20506;-69
2022/09/01 01:31:00;;;;;;;15.68;10.45;;;19.60;91.80;;;;;;5034540;28;20017;-69
2022/09/01 01:33:40;;;;;;;16.45;10.60;;;19.60;91.80;;;;;;5051723;28;20022;-69
2022/09/01 01:36:12;;;;;;;16.63;10.52;;;19.60;91.80;;;;;;5042734;28;20056;-69
2022/09/01 01:38:43;;;;;;;18.35;12.07;;;19.60;91.80;;;;;;5052414;28;20449;-69
2022/09/01 01:41:10;;;;;;;22.05;12.23;;;19.60;91.80;;;;;;5051740;28;20024;-69
2022/09/01 01:43:37;;;;;;;21.25;11.15;;;19.60;91.80;;;;;;5051815;28;20115;-69
2022/09/01 01:46:07;;;;;;;17.83;11.10;;;19.60;91.80;;;;;;5051127;28;20033;-69
2022/09/01 01:48:35;;;;;;;15.15;10.82;;;19.60;91.80;;;;;;5052122;28;20478;-69
2022/09/01 01:51:03;;;;;;;25.85;12.32;;;19.60;91.80;;;;;;5042414;28;20087;-69
2022/09/01 01:53:29;;;;;;;25.85;12.80;;;19.60;91.80;;;;;;5034071;28;20374;-69
2022/09/01 01:55:57;;;;;;;21.67;12.18;;;19.60;91.80;;;;;;5033770;28;20091;-70
2022/09/01 01:58:24;;;;;;;23.52;12.50;;;19.60;91.90;;;;;;5051798;28;20025;-69
2022/09/01 02:00:51;;;;;;;22.63;13.63;;;19.60;91.80;;;;;;5051733;28;20020;-68
2022/09/01 02:03:20;;;;;;;20.90;12.45;;;19.60;91.80;;;;;;5051602;28;20037;-69
2022/09/01 02:05:49;;;;;;;19.92;12.95;;;19.60;91.80;;;;;;5043469;28;20525;-70
2022/09/01 02:08:17;;;;;;;19.83;12.38;;;19.60;91.80;;;;;;5033076;28;20573;-69
2022/09/01 02:10:44;;;;;;;18.90;12.85;;;19.60;91.80;;;;;;5051599;28;20441;-69
2022/09/01 02:13:15;;;;;;;22.05;12.52;;;19.60;91.80;;;;;;5051111;28;20107;-69
2022/09/01 02:15:44;;;;;;;25.33;14.55;;;19.60;91.80;;;;;;5051136;28;20475;-69
2022/09/01 02:18:16;;;;;;;19.63;12.43;;;19.60;91.80;;;;;;5033930;28;20549;-68
2022/09/01 02:20:43;;;;;;;18.08;12.75;;;19.60;91.80;;;;;;5028458;28;20044;-69
2022/09/01 02:23:10;;;;;;;21.45;13.23;;;19.60;91.80;;;;;;5048777;28;20533;-69
2022/09/01 02:25:42;;;;;;;22.20;12.32;;;19.60;91.80;;;;;;5051357;28;20021;-69
2022/09/01 02:28:14;;;;;;;25.55;13.30;;;19.60;91.80;;;;;;5033801;28;20028;-69
2022/09/01 02:30:50;;;;;;;23.20;13.73;;;19.60;91.80;;;;;;5033705;28;20033;-69
2022/09/01 02:33:18;;;;;;;21.95;13.18;;;19.60;91.80;;;;;;5050663;28;20032;-69
2022/09/01 02:35:45;;;;;;;20.73;12.63;;;19.60;91.80;;;;;;5044108;28;20463;-69
2022/09/01 02:38:12;;;;;;;22.23;13.55;;;19.60;91.90;;;;;;5048724;28;20029;-69
2022/09/01 02:40:43;;;;;;;21.63;12.45;;;19.70;91.90;;;;;;5050934;28;20551;-69
2022/09/01 02:43:10;;;;;;;23.95;12.68;;;19.60;91.90;;;;;;5032477;28;20033;-68
2022/09/01 02:45:36;;;;;;;19.35;12.60;;;19.60;91.90;;;;;;5050337;28;20562;-69
2022/09/01 02:48:09;;;;;;;20.55;12.73;;;19.60;91.90;;;;;;5050967;28;20048;-69
2022/09/01 02:50:40;;;;;;;19.23;12.10;;;19.60;91.90;;;;;;5038347;28;20028;-69
2022/09/01 02:53:08;;;;;;;21.80;12.05;;;19.60;91.90;;;;;;5046739;28;20344;-68
2022/09/01 02:55:40;;;;;;;21.80;12.70;;;19.60;91.80;;;;;;5049986;28;20017;-69
2022/09/01 02:58:18;;;;;;;20.92;12.95;;;19.60;91.80;;;;;;5050642;28;20121;-69
2022/09/01 03:00:45;;;;;;;20.88;12.20;;;19.60;91.90;;;;;;5032772;28;20513;-68
2022/09/01 03:03:11;;;;;;;20.15;11.98;;;19.60;91.90;;;;;;5032428;28;20028;-69
2022/09/01 03:05:38;;;;;;;18.77;11.68;;;19.60;91.90;;;;;;5044570;28;20026;-69
2022/09/01 03:08:09;;;;;;;23.33;13.00;;;19.60;91.90;;;;;;5047062;28;20584;-69
2022/09/01 03:10:40;;;;;;;22.83;12.85;;;19.60;91.90;;;;;;5024949;28;20382;-69
2022/09/01 03:13:13;;;;;;;22.20;12.65;;;19.60;91.90;;;;;;5050429;28;20029;-69
2022/09/01 03:15:39;;;;;;;17.17;11.18;;;19.60;91.90;;;;;;5049585;28;20163;-69
2022/09/01 03:18:07;;;;;;;18.42;10.50;;;19.60;91.90;;;;;;5050157;28;20032;-69
2022/09/01 03:20:34;;;;;;;23.80;11.15;;;19.60;91.90;;;;;;5045613;28;20021;-69
2022/09/01 03:23:03;;;;;;;17.45;11.13;;;19.60;91.90;;;;;;5027165;28;20037;-68
2022/09/01 03:25:30;;;;;;;16.80;10.55;;;19.60;91.90;;;;;;5031763;28;20112;-69
2022/09/01 03:28:01;;;;;;;19.30;10.50;;;19.60;91.90;;;;;;5050106;28;20521;-69
2022/09/01 03:30:29;;;;;;;19.02;10.45;;;19.60;91.90;;;;;;5049511;28;20029;-69
2022/09/01 03:32:56;;;;;;;16.08;10.48;;;19.60;91.90;;;;;;5032404;28;20024;-71
2022/09/01 03:35:22;;;;;;;17.90;11.55;;;19.60;91.90;;;;;;5046806;28;20019;-69
2022/09/01 03:37:47;;;;;;;16.42;10.73;;;19.60;91.90;;;;;;5042239;28;20021;-69
2022/09/01 03:40:14;;;;;;;16.75;10.80;;;19.60;91.90;;;;;;5049936;28;20210;-69
2022/09/01 03:42:40;;;;;;;21.42;10.60;;;19.60;91.90;;;;;;5050015;28;20489;-69
2022/09/01 03:45:07;;;;;;;20.90;11.77;;;19.60;91.90;;;;;;5031240;28;20037;-69
2022/09/01 03:47:38;;;;;;;21.13;11.35;;;19.60;91.90;;;;;;5050117;28;20048;-68
2022/09/01 03:50:10;;;;;;;21.20;11.80;;;19.60;91.90;;;;;;5049051;28;20065;-69
2022/09/01 03:52:36;;;;;;;17.98;10.65;;;19.60;91.90;;;;;;5023722;28;20017;-68
2022/09/01 03:55:02;;;;;;;14.98;9.82;;;19.60;92.00;;;;;;5031231;28;20025;-70
2022/09/01 03:57:28;;;;;;;17.92;11.35;;;19.60;92.00;;;;;;5049667;28;20112;-69
2022/09/01 03:59:55;;;;;;;16.15;9.75;;;19.60;92.00;;;;;;5031680;28;20382;-69
2022/09/01 04:02:21;;;;;;;16.95;10.05;;;19.60;92.00;;;;;;5048857;28;20454;-70
2022/09/01 04:04:47;;;;;;;15.32;9.13;;;19.60;92.00;;;;;;5048665;28;20028;-68
2022/09/01 04:07:13;;;;;;;18.48;11.18;;;19.70;92.00;;;;;;5047116;28;20128;-69
2022/09/01 04:09:38;;;;;;;18.02;10.55;;;19.60;91.90;;;;;;5050358;28;20021;-69
2022/09/01 04:12:10;;;;;;;17.00;10.73;;;19.60;92.00;;;;;;5049552;28;20029;-69
2022/09/01 04:14:35;;;;;;;17.98;10.48;;;19.60;92.00;;;;;;5050901;28;20095;-69
2022/09/01 04:19:49;;;;;;;17.67;9.45;;;19.60;92.00;;;;;;5053253;28;20032;-69
2022/09/01 04:29:07;;;;;;;18.23;10.57;;;19.60;92.00;;;;;;5052886;28;20029;-69
2022/09/01 04:31:39;;;;;;;20.08;10.60;;;19.60;92.00;;;;;;5052293;28;20055;-68
2022/09/01 04:34:15;;;;;;;19.08;11.48;;;19.60;92.30;;;;;;5050922;28;20056;-69
2022/09/01 04:36:43;;;;;;;17.08;10.23;;;19.60;92.00;;;;;;5050739;28;20057;-69
2022/09/01 04:39:11;;;;;;;19.00;10.75;;;19.60;92.00;;;;;;5051891;28;20017;-69
2022/09/01 04:41:44;;;;;;;16.17;10.43;;;19.60;92.00;;;;;;5049311;28;20390;-69
2022/09/01 04:44:10;;;;;;;16.30;10.27;;;19.60;92.00;;;;;;5049113;28;20033;-69
2022/09/01 04:46:41;;;;;;;19.48;10.70;;;19.60;92.00;;;;;;5048112;28;20041;-69
2022/09/01 04:49:09;;;;;;;;;;;19.60;92.00;;;;;;5049473;28;20037;-69
2022/09/01 04:51:47;;;;;;;18.45;11.02;;;19.60;92.00;;;;;;5046238;28;20011;-68
2022/09/01 04:54:15;;;;;;;17.92;9.90;;;19.60;91.90;;;;;;5044562;28;20031;-69
2022/09/01 04:56:43;;;;;;;19.23;9.98;;;19.60;92.00;;;;;;5047034;28;20029;-69
2022/09/01 04:59:10;;;;;;;15.98;9.50;;;19.60;92.00;;;;;;5049298;28;20028;-69
2022/09/01 05:01:48;;;;;;;19.35;11.07;;;19.60;92.00;;;;;;5048753;28;20057;-70
2022/09/01 05:04:20;;;;;;;16.40;9.77;;;19.60;92.00;;;;;;5048886;28;20032;-69
2022/09/01 05:06:53;;;;;;;18.98;10.43;;;19.60;92.00;;;;;;5043939;28;20040;-69
2022/09/01 05:09:19;;;;;;;14.82;9.38;;;19.60;92.00;;;;;;5027584;28;20242;-69
2022/09/01 05:11:47;;;;;;;18.00;9.75;;;19.60;92.00;;;;;;5048860;28;20017;-69
2022/09/01 05:14:13;;;;;;;15.32;9.20;;;19.60;92.00;;;;;;5048838;28;20058;-69
2022/09/01 05:16:39;;;;;;;19.13;10.13;;;19.60;92.00;;;;;;5050969;28;20060;-69
2022/09/01 05:19:09;;;;;;;15.65;9.88;;;19.60;92.00;;;;;;5052586;28;20032;-69
2022/09/01 05:21:37;;;;;;;17.47;10.63;;;19.60;92.00;;;;;;5031195;28;20123;-71
2022/09/01 05:24:03;;;;;;;17.80;10.40;;;19.60;92.00;;;;;;5045843;28;20036;-71
2022/09/01 05:26:32;;;;;;;16.98;10.25;;;19.60;91.90;;;;;;5051574;28;20073;-71
2022/09/01 05:29:01;;;;;;;18.98;11.60;;;19.60;92.30;;;;;;5052420;28;20016;-71
2022/09/01 05:31:33;;;;;;;19.15;10.77;;;19.60;91.90;;;;;;5033891;28;20120;-71
2022/09/01 05:34:02;;;;;;;19.60;11.27;;;19.60;92.00;;;;;;5051948;28;20474;-71
2022/09/01 05:36:32;;;;;;;19.10;11.20;;;19.60;91.90;;;;;;5050342;28;20036;-71
2022/09/01 05:38:58;;;;;;;;;;;19.60;91.90;;;;;;5044202;28;20028;-72
2022/09/01 05:41:24;;;;;;;18.10;10.98;;;19.60;91.90;;;;;;5051989;28;19905;-70
2022/09/01 05:43:53;;;;;;;15.52;9.90;;;19.60;91.90;;;;;;5052196;28;20025;-70
2022/09/01 05:46:26;;;;;;;15.48;10.27;;;19.60;91.90;;;;;;5051161;28;20043;-70
2022/09/01 05:48:53;;;;;;;21.15;11.32;;;19.60;91.90;;;;;;5051733;28;20029;-70
2022/09/01 05:51:22;;;;;;;16.02;10.38;;;19.60;91.90;;;;;;5032812;28;20052;-71
2022/09/01 05:53:57;;;;;;;17.52;9.55;;;19.60;91.90;;;;;;5043708;28;20035;-71
2022/09/01 05:56:25;;;;;;;14.27;9.50;;;19.60;91.90;;;;;;5033494;28;20402;-71
2022/09/01 05:58:52;;;;;;;15.63;9.80;;;19.60;91.90;;;;;;5033914;28;20474;-71
2022/09/01 06:01:26;;;;;;;15.23;8.77;;;19.60;91.90;;;;;;5051536;28;20021;-71
2022/09/01 06:03:55;;;;;;;15.23;9.05;;;19.60;91.90;;;;;;5051557;28;20558;-71
2022/09/01 06:06:22;;;;;;;14.75;7.82;;;19.60;91.90;;;;;;5050381;28;20071;-71
2022/09/01 06:08:50;;;;;;;12.93;9.02;;;19.60;91.90;;;;;;5043062;28;20039;-71
2022/09/01 06:11:17;;;;;;;14.02;8.77;;;19.60;91.80;;;;;;5051532;28;20082;-71
2022/09/01 06:13:51;;;;;;;13.18;8.52;;;19.70;91.80;;;;;;5033346;28;20025;-71
2022/09/01 06:16:18;;;;;;;16.38;8.68;;;19.70;91.80;;;;;;5051100;28;20028;-71
2022/09/01 06:18:44;;;;;;;14.30;8.48;;;19.70;91.80;;;;;;5051506;28;20023;-71
2022/09/01 06:21:13;;;;;;;13.68;8.18;;;19.70;91.80;;;;;;5050951;28;20100;-71
2022/09/01 06:23:43;;;;;;;15.82;9.23;;;19.70;91.80;;;;;;5042221;28;20052;-71
2022/09/01 06:26:25;;;;;;;14.95;9.02;;;19.70;91.80;;;;;;5031164;28;20116;-71
2022/09/01 06:28:53;;;;;;;12.55;8.10;;;19.70;91.80;;;;;;5051216;28;20028;-70
2022/09/01 06:31:24;;;;;;;13.77;8.77;;;19.70;91.80;;;;;;5032944;28;20474;-70
2022/09/01 06:33:54;;;;;;;17.67;9.73;;;19.70;91.80;;;;;;5033331;28;20029;-70
2022/09/01 06:36:24;;;;;;;14.75;9.80;;;19.70;91.80;;;;;;5050712;28;20024;-70
2022/09/01 06:38:51;;;;;;;;;;;19.70;91.70;;;;;;5041924;28;20031;-71
2022/09/01 06:41:18;;;;;;;18.60;10.60;;;19.70;91.80;;;;;;5050638;28;19958;-71
2022/09/01 06:43:47;;;;;;;20.67;9.77;;;19.70;91.70;;;;;;5051047;28;20029;-71
2022/09/01 06:46:12;;;;;;;20.05;10.80;;;19.80;91.70;;;;;;5050354;28;20033;-70
2022/09/01 06:48:45;;;;;;;18.38;10.40;;;19.80;91.60;;;;;;5051224;28;20098;-71
2022/09/01 06:51:21;;;;;;;19.00;11.15;;;19.80;91.50;;;;;;5050978;28;20071;-71
2022/09/01 06:53:55;;;;;;;17.58;10.82;;;19.80;91.50;;;;;;5041695;28;20124;-71
2022/09/01 06:56:27;;;;;;;14.18;8.70;;;19.90;91.50;;;;;;5032357;28;20025;-71
2022/09/01 06:59:02;;;;;;;16.73;9.35;;;19.90;91.50;;;;;;5050670;28;20112;-71
2022/09/01 07:01:29;;;;;;;14.52;8.40;;;19.90;91.60;;;;;;5050416;28;20029;-71
2022/09/01 07:03:57;;;;;;;15.25;9.23;;;19.90;91.60;;;;;;5050197;28;20021;-71
2022/09/01 07:06:26;;;;;;;14.48;9.63;;;19.90;91.60;;;;;;5032385;28;20120;-71
2022/09/01 07:08:57;;;;;;;14.57;9.07;;;19.90;91.60;;;;;;5040605;28;20084;-71
2022/09/01 07:11:27;;;;;;;14.43;9.25;;;20.00;91.60;;;;;;5050236;28;20446;-71
2022/09/01 07:13:56;;;;;;;15.35;8.40;;;20.00;91.60;;;;;;5050354;28;20099;-70
2022/09/01 07:16:25;;;;;;;11.95;8.65;;;20.00;91.60;;;;;;5031867;28;20404;-71
2022/09/01 07:18:55;;;;;;;10.77;7.75;;;20.10;91.60;;;;;;5050366;28;20489;-71
2022/09/01 07:21:20;;;;;;;14.13;8.05;;;20.10;91.60;;;;;;5032545;28;20470;-70
2022/09/01 07:24:33;;;;;;;11.45;8.18;;;20.10;91.50;;;;;;5051556;28;20058;-70
2022/09/01 07:26:58;;;;;;;13.30;7.88;;;20.20;91.50;;;;;;5042958;28;20030;-71
2022/09/01 07:29:25;;;;;;;12.80;7.90;;;20.20;91.90;;;;;;5049951;28;20021;-71
2022/09/01 07:31:54;;;;;;;12.85;7.15;;;20.20;91.50;;;;;;5031999;28;20422;-70
2022/09/01 07:34:20;;;;;;;11.97;7.27;;;20.20;91.50;;;;;;5050450;28;20140;-71
2022/09/01 07:36:46;;;;;;;11.77;6.18;;;20.20;91.50;;;;;;5049642;28;20021;-71
2022/09/01 07:39:12;;;;;;;10.48;7.03;;;20.20;91.40;;;;;;5022187;28;20508;-71
2022/09/01 07:41:40;;;;;;;9.75;6.65;;;20.20;91.40;;;;;;5049948;28;20562;-71
2022/09/01 07:44:12;;;;;;;13.32;6.57;;;20.20;91.40;;;;;;5031422;28;20047;-71
2022/09/01 07:46:39;;;;;;;10.73;6.68;;;20.20;91.40;;;;;;5048661;28;20033;-71
2022/09/01 07:49:06;;;;;;;10.07;6.32;;;20.20;91.40;;;;;;5049646;28;20501;-71
2022/09/01 07:51:33;;;;;;;9.27;6.15;;;20.20;91.40;;;;;;5049143;28;20466;-71
2022/09/01 07:54:01;;;;;;;13.02;7.20;;;20.20;91.40;;;;;;5040371;28;20070;-71
2022/09/01 07:56:29;;;;;;;11.75;6.55;;;20.20;91.30;;;;;;5049151;28;20059;-70
2022/09/01 07:58:56;;;;;;;9.95;6.45;;;20.20;91.30;;;;;;5032373;28;20500;-70
2022/09/01 08:01:24;;;;;;;15.73;6.43;;;20.20;91.30;;;;;;5034116;28;20025;-70
2022/09/01 08:03:55;;;;;;;9.98;6.82;;;20.20;91.40;;;;;;5052127;28;20059;-71
2022/09/01 08:06:23;;;;;;;;;;;20.20;91.30;;;;;;5051680;28;20489;-70
2022/09/01 08:11:51;;;;;;;9.50;6.47;;;20.20;91.30;;;;;;5076191;22;20056;-64
2022/09/01 08:14:19;;;;;;;10.60;6.22;;;20.20;91.30;;;;;;5030162;28;20152;-64
2022/09/01 08:16:45;;;;;;;8.48;6.10;;;20.20;91.30;;;;;;5031809;28;20361;-64
2022/09/01 08:19:11;;;;;;;10.20;5.70;;;20.20;91.30;;;;;;5051448;28;20025;-64
2022/09/01 08:21:36;;;;;;;10.00;5.68;;;20.20;91.30;;;;;;5067013;28;20121;-64
2022/09/01 08:24:08;;;;;;;6.95;5.30;;;20.20;91.30;;;;;;5051169;28;20116;-64
2022/09/01 08:26:35;;;;;;;8.80;4.95;;;20.20;91.20;;;;;;5033190;28;20032;-64
2022/09/01 08:29:00;;;;;;;8.85;5.72;;;20.20;91.20;;;;;;5051694;28;20037;-65
2022/09/01 08:31:29;;;;;;;8.05;5.45;;;20.20;91.20;;;;;;5063959;28;20032;-64
2022/09/01 08:33:55;;;;;;;8.68;5.53;;;20.20;91.20;;;;;;5049814;28;20018;-64
2022/09/01 08:36:23;;;;;;;10.02;6.05;;;20.20;91.20;;;;;;5051002;28;20481;-65
2022/09/01 08:42:51;;;;;;;11.63;5.45;;;20.20;91.20;;;;;;4972373;28;20531;-64
2022/09/01 08:49:06;;;;;;;8.02;5.35;;;20.20;91.10;;;;;;4997747;28;20139;-64
2022/09/01 08:51:42;;;;;;;10.05;5.25;;;20.20;91.10;;;;;;4992789;28;20042;-64
2022/09/01 08:54:07;;;;;;;10.77;4.70;;;20.20;91.10;;;;;;5009951;28;20033;-65
2022/09/01 08:56:36;;;;;;;5.90;4.43;;;20.20;91.10;;;;;;4976390;28;20030;-64
2022/09/01 08:59:02;;;;;;;8.35;4.38;;;20.20;91.10;;;;;;5003702;28;20022;-64
2022/09/01 09:01:40;;;;;;;10.25;5.07;;;20.20;91.00;;;;;;5005542;28;20065;-64
2022/09/01 09:04:49;;;;;;;8.25;5.32;;;20.20;91.10;;;;;;4986551;28;20061;-65
2022/09/01 09:07:53;;;;;;;8.57;5.55;;;20.20;91.00;;;;;;5002422;28;20421;-64
2022/09/01 09:10:25;;;;;;;8.70;6.28;;;20.20;91.00;;;;;;4994370;28;20117;-64
2022/09/01 09:13:01;;;;;;;10.85;6.20;;;20.20;91.00;;;;;;5040744;28;20029;-64
2022/09/01 09:15:46;;;;;;;11.00;5.10;;;20.20;91.00;;;;;;5024224;28;20470;-64
2022/09/01 09:18:52;;;;;;;8.30;4.88;;;20.20;91.00;;;;;;5047028;28;20103;-64
2022/09/01 09:21:43;;;;;;;7.03;5.15;;;20.20;90.90;;;;;;4931569;29;20062;-64
2022/09/01 09:24:45;;;;;;;9.15;5.82;;;20.20;90.90;;;;;;4944096;29;20401;-64
2022/09/01 09:27:35;;;;;;;9.07;6.20;;;20.20;90.90;;;;;;4951471;29;20039;-65
2022/09/01 09:30:06;;;;;;;6.47;4.75;;;20.20;90.90;;;;;;4945056;29;20043;-64
2022/09/01 09:32:43;;;;;;;7.05;4.78;;;20.20;90.90;;;;;;4938365;29;20050;-64
2022/09/01 09:35:31;;;;;;;7.78;5.68;;;20.20;90.90;;;;;;4959124;28;20032;-64
2022/09/01 09:38:17;;;;;;;6.63;4.80;;;20.20;90.90;;;;;;4950078;29;20035;-64
2022/09/01 09:40:58;;;;;;;6.63;5.80;;;20.20;90.80;;;;;;4942853;29;20046;-64
2022/09/01 09:43:23;;;;;;;;;;;20.20;90.80;;;;;;4945156;29;20035;-65
2022/09/01 09:45:49;;;;;;;9.75;5.72;;;20.20;90.80;;;;;;4930189;29;19917;-64
2022/09/01 09:48:29;;;;;;;9.75;5.65;;;20.10;90.80;;;;;;4949508;29;20035;-64
2022/09/01 09:51:13;;;;;;;7.75;5.13;;;20.10;90.70;;;;;;4934006;29;20040;-64
2022/09/01 09:53:39;;;;;;;12.20;6.18;;;20.20;90.80;;;;;;4946491;29;20110;-64
2022/09/01 09:56:21;;;;;;;9.30;5.97;;;20.20;90.70;;;;;;5039762;28;20112;-65
2022/09/01 09:58:48;;;;;;;9.70;5.95;;;20.20;90.70;;;;;;5024026;28;20470;-64
2022/09/01 10:01:29;;;;;;;9.20;5.68;;;20.20;90.80;;;;;;5052021;28;20025;-64
2022/09/01 10:03:58;;;;;;;7.75;5.30;;;20.20;90.70;;;;;;5034509;28;20068;-64
2022/09/01 10:06:37;;;;;;;6.68;4.68;;;20.20;91.10;;;;;;5051666;28;20025;-64
2022/09/01 10:09:31;;;;;;;6.72;4.88;;;20.20;90.80;;;;;;5031048;28;20022;-65
2022/09/01 10:11:58;;;;;;;6.63;4.72;;;20.20;90.70;;;;;;5037638;28;20063;-64
2022/09/01 10:14:32;;;;;;;6.18;4.70;;;20.20;90.70;;;;;;5032111;28;20123;-64
2022/09/01 10:17:03;;;;;;;6.40;4.40;;;20.20;90.70;;;;;;5050868;28;20381;-64
2022/09/01 10:19:33;;;;;;;7.72;5.00;;;20.20;90.70;;;;;;5034365;28;20029;-64
2022/09/01 10:21:59;;;;;;;;;;;20.20;90.70;;;;;;5034996;28;20027;-65
2022/09/01 10:24:30;;;;;;;5.60;4.65;;;20.20;90.70;;;;;;5052283;28;19995;-64
2022/09/01 10:27:00;;;;;;;5.68;4.22;;;20.20;90.70;;;;;;5044815;28;20037;-64
2022/09/01 10:29:28;;;;;;;6.97;4.30;;;20.20;90.70;;;;;;5034235;28;20549;-64
2022/09/01 10:31:54;;;;;;;6.55;4.80;;;20.30;90.70;;;;;;5051696;28;20067;-64
2022/09/01 10:34:21;;;;;;;5.13;3.75;;;20.20;90.70;;;;;;5051711;28;20083;-64
2022/09/01 10:36:49;;;;;;;7.13;3.72;;;20.20;90.70;;;;;;5051661;28;20021;-64
2022/09/01 10:39:17;;;;;;;9.13;4.75;;;20.20;90.70;;;;;;5034078;28;20021;-64
2022/09/01 10:41:53;;;;;;;7.97;3.78;;;20.30;90.70;;;;;;5042765;28;20516;-65
2022/09/01 10:44:32;;;;;;;4.88;3.88;;;20.20;90.70;;;;;;5033850;28;20041;-64
2022/09/01 10:47:07;;;;;;;7.18;4.57;;;20.30;90.70;;;;;;5051603;28;20033;-64
2022/09/01 10:49:32;;;;;;;6.30;4.20;;;20.30;90.70;;;;;;5030916;28;20044;-64
2022/09/01 10:51:58;;;;;;;6.40;4.53;;;20.30;90.60;;;;;;5046918;28;20025;-64
2022/09/01 10:54:39;;;;;;;4.93;4.07;;;20.30;90.60;;;;;;5051903;28;20033;-64
2022/09/01 10:57:27;;;;;;;6.35;4.28;;;20.30;90.60;;;;;;5033579;28;20053;-65
2022/09/01 10:59:56;;;;;;;5.40;3.90;;;20.30;90.50;;;;;;5051676;28;20052;-64
2022/09/01 11:02:33;;;;;;;7.03;4.15;;;20.30;90.50;;;;;;5051482;28;20024;-64
2022/09/01 11:04:59;;;;;;;4.93;3.80;;;20.30;90.80;;;;;;5032654;28;20285;-65
2022/09/01 11:07:34;;;;;;;6.97;4.32;;;20.30;90.50;;;;;;5050548;28;20063;-64
2022/09/01 11:10:32;;;;;;;7.15;4.03;;;20.30;90.50;;;;;;5051476;28;20181;-65
2022/09/01 11:13:35;;;;;;;8.65;4.82;;;20.30;90.50;;;;;;5037098;28;20041;-65
2022/09/01 11:16:28;;;;;;;5.15;4.28;;;20.30;90.50;;;;;;5027659;28;20127;-65
2022/09/01 11:19:14;;;;;;;5.05;3.80;;;20.30;90.50;;;;;;5031055;28;20045;-64
2022/09/01 11:21:41;;;;;;;6.80;4.60;;;20.30;90.50;;;;;;5042689;28;20021;-64
2022/09/01 11:24:37;;;;;;;5.72;4.72;;;20.30;90.40;;;;;;5050925;28;20429;-65
2022/09/01 11:27:32;;;;;;;6.22;4.60;;;20.30;90.40;;;;;;5073606;28;20025;-64
2022/09/01 11:30:05;;;;;;;5.80;4.18;;;20.40;90.40;;;;;;5034934;28;20017;-64
2022/09/01 11:32:34;;;;;;;7.15;4.68;;;20.40;90.40;;;;;;5050699;28;20104;-64
2022/09/01 11:35:03;;;;;;;7.55;4.60;;;20.30;90.40;;;;;;5050497;28;20044;-65
2022/09/01 11:37:29;;;;;;;7.07;5.00;;;20.30;90.40;;;;;;5050905;28;20033;-64
2022/09/01 11:39:58;;;;;;;6.32;5.20;;;20.30;90.40;;;;;;5051113;28;20063;-65
2022/09/01 11:42:35;;;;;;;7.53;4.60;;;20.40;90.40;;;;;;5049146;28;20053;-64
2022/09/01 11:45:13;;;;;;;7.00;4.07;;;20.40;90.40;;;;;;5050232;28;20547;-65
2022/09/01 11:47:43;;;;;;;5.68;4.22;;;20.40;90.30;;;;;;5029443;28;20033;-64
2022/09/01 11:50:30;;;;;;;8.35;4.68;;;20.40;90.30;;;;;;5051260;28;20056;-64
2022/09/01 11:53:06;;;;;;;6.47;4.72;;;20.40;90.30;;;;;;5050791;28;20020;-64
2022/09/01 11:55:33;;;;;;;5.50;3.90;;;20.40;90.30;;;;;;5050033;28;20056;-65
2022/09/01 11:57:59;;;;;;;8.88;5.13;;;20.40;90.30;;;;;;5038509;28;20028;-65
2022/09/01 12:00:31;;;;;;;7.05;4.72;;;20.40;90.30;;;;;;5049829;28;20477;-64
2022/09/01 12:02:58;;;;;;;8.15;4.78;;;20.40;90.30;;;;;;5050001;28;20025;-65
2022/09/01 12:05:24;;;;;;;5.45;3.90;;;20.40;90.20;;;;;;5050449;28;20033;-65
2022/09/01 12:07:50;;;;;;;8.52;4.68;;;20.50;90.20;;;;;;5050527;28;20469;-64
2022/09/01 12:10:32;;;;;;;5.60;3.58;;;20.50;90.20;;;;;;5050366;28;20445;-62
2022/09/01 12:13:19;;;;;;;5.13;3.42;;;20.50;90.20;;;;;;5063594;28;20028;-64
2022/09/01 12:15:56;;;;;;;7.28;3.45;;;20.50;90.20;;;;;;5049300;28;20033;-65
2022/09/01 12:18:34;;;;;;;4.13;3.50;;;20.50;90.20;;;;;;5050171;28;20048;-65
2022/09/01 12:21:03;;;;;;;3.92;3.53;;;20.50;90.10;;;;;;5029097;28;20364;-65
2022/09/01 12:23:31;;;;;;;4.55;2.90;;;20.50;90.10;;;;;;5047008;28;20033;-64
2022/09/01 12:26:10;;;;;;;4.80;2.60;;;20.50;90.10;;;;;;5049421;28;20032;-64
2022/09/01 12:28:40;;;;;;;5.00;3.05;;;20.50;90.10;;;;;;5055515;28;20498;-65
2022/09/01 12:31:11;;;;;;;5.45;4.07;;;20.50;90.10;;;;;;5053617;28;20021;-65
2022/09/01 12:33:38;;;;;;;3.97;3.50;;;20.50;90.10;;;;;;5036355;28;20623;-65
2022/09/01 12:36:22;;;;;;;4.47;3.35;;;20.50;90.10;;;;;;5053189;28;20100;-65
2022/09/01 12:38:49;;;;;;;4.53;3.00;;;20.50;90.10;;;;;;5053856;28;20017;-65
2022/09/01 12:41:33;;;;;;;5.75;3.67;;;20.50;90.10;;;;;;5052960;28;20036;-65
2022/09/01 12:44:28;;;;;;;4.22;3.67;;;20.50;90.10;;;;;;5028916;28;20033;-66
2022/09/01 12:46:55;;;;;;;12.80;3.50;;;20.50;90.10;;;;;;5015691;28;20379;-65
2022/09/01 12:49:34;;;;;;;5.85;4.03;;;20.50;90.10;;;;;;5048861;28;20020;-65
2022/09/01 12:52:18;;;;;;;7.72;3.08;;;20.50;90.10;;;;;;5038130;28;20025;-65
2022/09/01 12:54:45;;;;;;;3.90;3.42;;;20.50;90.10;;;;;;5034951;28;20487;-64
2022/09/01 12:57:26;;;;;;;4.53;2.92;;;20.50;90.10;;;;;;5060757;28;20543;-64
2022/09/01 13:00:13;;;;;;;5.97;3.40;;;20.50;90.10;;;;;;5053673;28;20641;-64
2022/09/01 13:02:42;;;;;;;6.65;3.72;;;20.50;90.10;;;;;;5053507;28;20504;-65
2022/09/01 13:05:27;;;;;;;4.43;3.75;;;20.50;90.10;;;;;;5052558;28;20033;-65
2022/09/01 13:07:58;;;;;;;4.93;3.42;;;20.50;90.10;;;;;;5053152;28;20025;-65
2022/09/01 13:10:26;;;;;;;10.70;4.05;;;20.50;90.10;;;;;;5053570;28;20442;-64
2022/09/01 13:12:53;;;;;;;4.68;3.50;;;20.60;90.20;;;;;;5053755;28;20040;-64
2022/09/01 13:15:20;;;;;;;5.45;3.63;;;20.60;90.20;;;;;;5036229;28;20031;-64
2022/09/01 13:17:46;;;;;;;4.88;3.88;;;20.60;90.10;;;;;;5055375;28;20021;-65
2022/09/01 13:20:13;;;;;;;7.55;4.22;;;20.60;90.20;;;;;;5055279;28;20514;-65
2022/09/01 13:22:42;;;;;;;5.90;4.45;;;20.60;90.20;;;;;;5055205;28;20025;-65